Genoa, West Virginia
Current Conditions -  °F | °C
As of 9:51 PM on Friday 19 Dec 2014 (Local Time) from KHTS Reporting Station
Overcast Overcast  
Wind Chill: 22°   Ceiling: 2400
Heat Index: 29°   Visibility: 10mi
Dew Point: 22°   Wind: 7mph
Humidity: 75%   Direction: 50°NE
Pressure: 30.27"   Gusts: NA
Location:  38.12°N, 82.46°W
Report Text: KHTS 200251Z 05006KT 10SM OVC024 M02/M06 A3027 RMK AO2 SLP258 T10171056 58008
Loading
Personal Weather Stations






























Interactive Weather Map New forecast layout! Learn more

10-Day Weather Forecast

Advertisements
Track Severe Weather on mobile